createdAt,value
2023-03-22T00:03:31.809Z,9.2
2023-03-22T00:08:37.781Z,9.2
2023-03-22T00:13:44.230Z,9.2
2023-03-22T00:18:49.885Z,9.2
2023-03-22T00:23:55.941Z,9.2
2023-03-22T00:29:02.043Z,9.2
2023-03-22T00:34:08.044Z,9.2
2023-03-22T00:39:14.170Z,9.1
2023-03-22T00:44:20.192Z,9.1
2023-03-22T00:49:26.248Z,9.1
2023-03-22T00:54:32.310Z,9
2023-03-22T00:59:38.395Z,9
2023-03-22T01:04:44.416Z,9.1
2023-03-22T01:09:50.438Z,9.1
2023-03-22T01:14:56.534Z,9.1
2023-03-22T01:20:02.553Z,9.1
2023-03-22T01:25:08.611Z,9.2
2023-03-22T01:30:14.684Z,9.2
2023-03-22T01:35:20.720Z,9.2
2023-03-22T01:40:26.774Z,9.1
2023-03-22T01:45:32.847Z,9.1
2023-03-22T01:50:39.261Z,9.1
2023-03-22T01:55:44.943Z,9
2023-03-22T02:00:51.038Z,9
2023-03-22T02:05:57.418Z,9
2023-03-22T02:11:03.089Z,9
2023-03-22T02:16:09.207Z,9
2023-03-22T02:21:15.211Z,9
2023-03-22T02:26:21.264Z,9
2023-03-22T02:31:27.395Z,9.1
2023-03-22T02:36:33.375Z,9.1
2023-03-22T02:41:39.447Z,9.1
2023-03-22T02:46:45.538Z,9.1
2023-03-22T02:51:51.559Z,8.9
2023-03-22T02:56:57.620Z,8.9
2023-03-22T03:02:03.761Z,9.1
2023-03-22T03:07:09.696Z,9
2023-03-22T03:12:15.763Z,9
2023-03-22T03:17:21.854Z,9
2023-03-22T03:22:27.911Z,8.9
2023-03-22T03:27:33.946Z,8.9
2023-03-22T03:32:40.028Z,8.9
2023-03-22T03:37:46.060Z,8.9
2023-03-22T03:42:52.096Z,8.9
2023-03-22T03:47:58.219Z,8.9
2023-03-22T03:53:04.210Z,9
2023-03-22T03:58:10.261Z,9
2023-03-22T04:03:16.378Z,9
2023-03-22T04:08:22.390Z,8.8
2023-03-22T04:13:28.442Z,8.9
2023-03-22T04:18:34.515Z,8.9
2023-03-22T04:23:40.543Z,8.9
2023-03-22T04:28:46.620Z,8.8
2023-03-22T04:33:52.702Z,8.8
2023-03-22T04:38:58.729Z,8.8
2023-03-22T04:44:04.768Z,8.7
2023-03-22T04:49:10.845Z,8.9
2023-03-22T04:54:16.989Z,8.9
2023-03-22T04:59:22.918Z,8.9
2023-03-22T05:04:29.040Z,8.9
2023-03-22T05:09:35.032Z,8.9
2023-03-22T05:14:41.262Z,8.9
2023-03-22T05:19:47.173Z,9
2023-03-22T05:24:53.234Z,9.1
2023-03-22T05:29:59.283Z,9.2
2023-03-22T05:35:05.374Z,9.3
2023-03-22T05:40:11.390Z,9.3
2023-03-22T05:45:17.478Z,9.4
2023-03-22T05:50:23.540Z,9.4
2023-03-22T05:55:29.581Z,9.4
2023-03-22T06:00:35.668Z,9.4
2023-03-22T06:05:41.706Z,9.5
2023-03-22T06:10:47.732Z,9.5
2023-03-22T06:15:53.769Z,9.5
2023-03-22T06:20:59.867Z,9.5
2023-03-22T06:26:05.906Z,9.6
2023-03-22T06:31:12.049Z,9.6
2023-03-22T06:36:18.018Z,9.5
2023-03-22T06:41:24.036Z,9.5
2023-03-22T06:46:30.188Z,9.5
2023-03-22T06:51:36.192Z,9.6
2023-03-22T06:56:42.212Z,9.6
2023-03-22T07:01:48.278Z,9.6
2023-03-22T07:06:54.363Z,9.6
2023-03-22T07:12:00.394Z,9.7
2023-03-22T07:17:06.440Z,9.6
2023-03-22T07:22:12.562Z,9.6
2023-03-22T07:27:18.558Z,9.6
2023-03-22T07:32:24.695Z,9.7
2023-03-22T07:37:30.674Z,9.7
2023-03-22T07:42:36.730Z,9.8
2023-03-22T07:47:42.930Z,9.8
2023-03-22T07:52:48.866Z,9.9
2023-03-22T07:57:54.882Z,9.9
2023-03-22T08:03:00.972Z,9.9
2023-03-22T08:08:07.005Z,9.9
2023-03-22T08:13:13.062Z,9.9
2023-03-22T08:18:19.124Z,9.9
2023-03-22T08:23:38.499Z,9.9
2023-03-22T08:28:32.339Z,9.9
2023-03-22T08:33:38.476Z,9.9
2023-03-22T08:38:44.471Z,10
2023-03-22T08:43:50.508Z,10
2023-03-22T08:48:56.547Z,10.1
2023-03-22T08:54:02.645Z,10.1
2023-03-22T08:59:08.679Z,10.1
2023-03-22T09:04:14.759Z,10
2023-03-22T09:09:20.806Z,10
2023-03-22T09:14:26.855Z,10
2023-03-22T09:19:32.927Z,10
2023-03-22T09:24:38.993Z,10.1
2023-03-22T09:29:45.010Z,10.1
2023-03-22T09:34:51.077Z,10.1
2023-03-22T09:39:57.150Z,10.1
2023-03-22T09:45:03.186Z,10.1
2023-03-22T09:50:09.253Z,10.1
2023-03-22T09:55:15.314Z,10.1
2023-03-22T10:00:21.602Z,10.1
2023-03-22T10:05:27.412Z,10.2
2023-03-22T10:10:33.476Z,10.2
2023-03-22T10:15:39.792Z,10.1
2023-03-22T10:20:45.558Z,10.1
2023-03-22T10:25:51.642Z,10.1
2023-03-22T10:30:57.712Z,10.1
2023-03-22T10:36:03.784Z,10.1
2023-03-22T10:41:09.824Z,10.1
2023-03-22T10:46:15.931Z,10.1
2023-03-22T10:51:21.907Z,10.1
2023-03-22T10:56:28.207Z,10.1
2023-03-22T11:01:34.232Z,10.1
2023-03-22T11:06:40.110Z,10.2
2023-03-22T11:11:46.143Z,10.2
2023-03-22T11:16:52.299Z,10.2
2023-03-22T11:21:58.225Z,10.2
2023-03-22T11:27:04.309Z,10.2
2023-03-22T11:32:10.420Z,10.1
2023-03-22T11:37:18.067Z,10.1
2023-03-22T11:42:22.484Z,10.2
2023-03-22T11:47:28.524Z,10.2
2023-03-22T11:52:34.556Z,10.2
2023-03-22T11:57:40.646Z,10.3
2023-03-22T12:02:46.750Z,10.3
2023-03-22T12:07:52.729Z,10.5
2023-03-22T12:12:58.882Z,10.5
2023-03-22T12:18:07.273Z,10.5
2023-03-22T12:23:10.910Z,10.6
2023-03-22T12:28:17.002Z,10.4
2023-03-22T12:33:23.025Z,10.4
2023-03-22T12:38:29.083Z,10.4
2023-03-22T12:43:35.151Z,10.5
2023-03-22T12:48:41.248Z,10.5
2023-03-22T12:53:47.249Z,10.5
2023-03-22T12:58:53.365Z,10.5
2023-03-22T13:03:59.635Z,10.7
2023-03-22T13:09:05.406Z,10.6
2023-03-22T13:14:11.510Z,10.6
2023-03-22T13:19:17.525Z,10.6
2023-03-22T13:24:23.597Z,10.6
2023-03-22T13:29:29.676Z,10.6
2023-03-22T13:34:35.700Z,10.6
2023-03-22T13:39:41.774Z,10.6
2023-03-22T13:44:47.827Z,10.6
2023-03-22T13:49:53.860Z,10.6
2023-03-22T13:54:59.971Z,10.6
2023-03-22T14:00:12.106Z,10.6
2023-03-22T14:05:12.035Z,10.6
2023-03-22T14:10:18.081Z,10.6
2023-03-22T14:15:24.170Z,10.6
2023-03-22T14:20:30.195Z,10.6
